AMS weather

Amsterdam Airport Schiphol
Amsterdam, Noord-Holland, Netherlands

Public forecast

Using degrees Celsius for public forecast. Weather courtesy of forecast.io.

Current aviation weather report (METAR) for Amsterdam Airport Schiphol

Retrieved 2019/10/23 01:25 UTC (0 seconds ago):

EHAM 230125Z 13003KT 0250 R18C/0550N R27/0375N R18R/0450N R06/0400N FG NSC 07/06 Q1021 NOSIG

Aviation forecast (TAF) for Amsterdam Airport Schiphol

Retrieved 2019-10-23 00:27 UTC (50 minutes ago):

TAF EHAM 222301Z 2300/2406 VRB02KT 0300 FG BCFG NSC PROB40 TEMPO 2301/2303 2000 BR BECMG 2303/2306 08005KT 3000 BR PROB30 TEMPO 2306/2309 0400 FG BECMG 2308/2311 CAVOK BECMG 2403/2406 17008KT